Welcome to our new website - Welkom op onze vernieuwde website - Bienvenue sur notre nouveau site web - Willkommen auf unserer neuen Website
Check our progress frequently. Prüfen Sie unsere Fortschritte regelmäßig. Consultez notre progression fréquemment. Komt u straks nog eens terug


Bezoek onze andere website:

Template documentation
and downloads

And another site



METAR rapporten vliegvelden

   
EBBR - Brussels International Airport, Belgium
Afstand tot: W 14 km
Gewijzigd: Jun 19 2018 7:50 pm
Grotendeels bewolkt  
Grotendeels bewolkt  
   Wind: WZW 7 km/h
Wind: WZW 7 km/h
Temperatuur: 20°C
Dauwpunt: 15°C
Vochtigheid: 73%
Barometer: 1024 hPa
Bewolking: Grotendeels bewolkt
Zicht: meer dan 10 km
Bewolking: Licht bewolkt 579.1 m,
Grotendeels bewolkt 792.5 m
EBBR 191750Z 25004KT 9999 FEW019 BKN026 20/15 Q1024 NOSIG
EBBE - Beauvechain (Bevekom), Belgium
Afstand tot: ZZO 17 km
Gewijzigd: Jun 19 2018 7:55 pm
Grotendeels bewolkt  
Grotendeels bewolkt  
   Wind: Westen 6 km/h
Wind: Westen 6 km/h
Temperatuur: 20°C
Dauwpunt: 16°C
Vochtigheid: 78%
Barometer: 1024 hPa
Bewolking: Grotendeels bewolkt
Zicht: meer dan 10 km
Bewolking: Licht bewolkt 883.9 m,
Grotendeels bewolkt 1005.8 m
EBBE 191755Z AUTO 27003KT 9999 FEW029/// BKN033/// 20/16 Q1024 BLU
EBDT - Schaffen, Belgium
Afstand tot: ONO 29 km
Gewijzigd: Jun 19 2018 7:55 pm
Bewolking  
Bewolking  
   Wind: WZW 7 km/h
Wind: WZW 7 km/h
Temperatuur: 20°C
Dauwpunt: 15°C
Vochtigheid: 73%
Barometer: 1024 hPa
Bewolking: Bewolking
Zicht: meer dan 10 km
Bewolking: Grotendeels bewolkt 944.9 m,
Bewolking 1127.8 m
EBDT 191755Z AUTO 25004KT 9999 BKN031/// OVC037/// 20/15 Q1024 BLU
EBAW - Antwerp/Deurne, Belgium
Afstand tot: NNW 38 km
Gewijzigd: Jun 19 2018 7:20 pm
Grotendeels bewolkt  
Grotendeels bewolkt  
   Wind: ZW 11 km/h
Wind: ZW 11 km/h
Temperatuur: 20°C
Dauwpunt: 15°C
Vochtigheid: 73%
Barometer: 1024 hPa
Bewolking: Grotendeels bewolkt
Zicht: meer dan 10 km
Bewolking: Gedeeltelijk bewolkt 640.1 m,
Grotendeels bewolkt 975.4 m
EBAW 191720Z 23006KT 9999 SCT021 BKN032 20/15 Q1024 NOSIG
EBCI - Charleroi/Gosselies, Belgium
Afstand tot: ZZW 51 km
Gewijzigd: Jun 19 2018 7:50 pm
Grotendeels bewolkt  
Grotendeels bewolkt  
   Wind: WZW 9 km/h
Wind: WZW 9 km/h
Temperatuur: 19°C
Dauwpunt: 16°C
Vochtigheid: 83%
Barometer: 1025 hPa
Bewolking: Grotendeels bewolkt
Zicht: meer dan 10 km
Bewolking: Licht bewolkt 487.7 m,
Grotendeels bewolkt 701 m
EBCI 191750Z 24005KT 210V270 9999 FEW016 BKN023 19/16 Q1025 NOSIG
EBLG - Bierset/Liege, Belgium
Afstand tot: OZO 60 km
Gewijzigd: Jun 19 2018 7:20 pm
Grotendeels bewolkt  
Grotendeels bewolkt  
   Wind: Westen 7 km/h
Wind: Westen 7 km/h
Temperatuur: 19°C
Dauwpunt: 16°C
Vochtigheid: 83%
Barometer: 1025 hPa
Bewolking: Grotendeels bewolkt
Zicht: meer dan 10 km
Bewolking: Licht bewolkt 518.2 m,
Grotendeels bewolkt 1005.8 m
EBLG 191720Z 26004KT 220V290 9999 FEW017 BKN033 19/16 Q1025 NOSIG

Script ontwikkeld door  Saratoga-weather.org Aangepast voor de template door  Weerstation Leuven

U vindt ons ook hier:

Het Weer Aktueel

UK Metoffice

European Weather Network

WeatherCloud

Weather Underground

AWEKAS

Apparatuur in gebruik:

Weerstation
Davis VP2

Weerprogramma
Meteobridge

Weercomputer
Tl-mr3020

Webleverancier
VIP Internet

Davis VP2

Meteobridge

Tl-mr3020

VIP Internet